createdAt,value
2017-12-01T00:00:15.164Z,91.00
2017-12-01T00:01:17.775Z,91.00
2017-12-01T00:02:20.310Z,91.00
2017-12-01T00:03:22.864Z,91.30
2017-12-01T00:04:25.432Z,91.00
2017-12-01T00:05:29.171Z,91.00
2017-12-01T00:06:31.725Z,91.00
2017-12-01T00:07:34.280Z,91.00
2017-12-01T00:08:36.849Z,91.00
2017-12-01T00:09:39.407Z,90.90
2017-12-01T00:10:41.952Z,91.00
2017-12-01T00:11:45.449Z,91.00
2017-12-01T00:12:48.017Z,91.00
2017-12-01T00:13:51.588Z,91.00
2017-12-01T00:14:54.883Z,91.00
2017-12-01T00:15:57.555Z,91.00
2017-12-01T00:17:00.115Z,91.10
2017-12-01T00:18:02.796Z,91.10
2017-12-01T00:19:05.367Z,91.10
2017-12-01T00:20:09.867Z,91.20
2017-12-01T00:21:12.419Z,91.10
2017-12-01T00:22:15.715Z,91.20
2017-12-01T00:23:18.248Z,91.20
2017-12-01T00:24:21.766Z,91.20
2017-12-01T00:25:25.085Z,91.20
2017-12-01T00:26:27.632Z,91.20
2017-12-01T00:27:30.193Z,91.20
2017-12-01T00:28:32.950Z,91.30
2017-12-01T00:29:36.246Z,91.20
2017-12-01T00:30:38.819Z,91.20
2017-12-01T00:31:41.354Z,91.20
2017-12-01T00:32:44.700Z,91.10
2017-12-01T00:33:47.443Z,91.10
2017-12-01T00:34:50.218Z,91.10
2017-12-01T00:35:52.754Z,91.10
2017-12-01T00:36:56.063Z,91.10
2017-12-01T00:37:58.642Z,91.10
2017-12-01T00:39:01.198Z,91.00
2017-12-01T00:40:03.731Z,91.00
2017-12-01T00:41:08.069Z,91.10
2017-12-01T00:42:10.605Z,91.10
2017-12-01T00:43:13.930Z,91.40
2017-12-01T00:44:16.492Z,91.10
2017-12-01T00:45:19.540Z,91.10
2017-12-01T00:46:23.204Z,91.60
2017-12-01T00:47:25.754Z,91.20
2017-12-01T00:48:28.308Z,91.20
2017-12-01T00:49:31.884Z,91.20
2017-12-01T00:50:34.431Z,91.20
2017-12-01T00:51:37.734Z,91.20
2017-12-01T00:52:40.326Z,91.20
2017-12-01T00:53:42.878Z,91.20
2017-12-01T00:54:45.436Z,91.70
2017-12-01T00:55:47.981Z,91.40
2017-12-01T00:56:51.278Z,91.40
2017-12-01T00:57:54.776Z,91.30
2017-12-01T00:58:57.308Z,91.40
2017-12-01T01:00:01.733Z,91.60
2017-12-01T01:01:05.425Z,91.50
2017-12-01T01:02:08.731Z,91.60
2017-12-01T01:03:11.265Z,91.60
2017-12-01T01:04:14.580Z,91.60
2017-12-01T01:05:17.113Z,91.60
2017-12-01T01:06:20.734Z,91.50
2017-12-01T01:07:23.273Z,91.50
2017-12-01T01:08:26.586Z,91.50
2017-12-01T01:09:29.108Z,91.50
2017-12-01T01:10:31.659Z,91.50
2017-12-01T01:11:34.253Z,91.40
2017-12-01T01:12:36.805Z,91.50
2017-12-01T01:13:39.347Z,91.70
2017-12-01T01:14:41.997Z,91.50
2017-12-01T01:15:45.059Z,91.50
2017-12-01T01:16:48.271Z,91.40
2017-12-01T01:17:51.281Z,91.40
2017-12-01T01:18:53.824Z,91.40
2017-12-01T01:19:56.859Z,91.50
2017-12-01T01:20:59.636Z,91.50
2017-12-01T01:22:02.240Z,91.50
2017-12-01T01:23:04.809Z,91.60
2017-12-01T01:24:07.331Z,91.60
2017-12-01T01:25:10.620Z,91.60
2017-12-01T01:26:13.923Z,91.60
2017-12-01T01:27:16.473Z,91.60
2017-12-01T01:28:19.008Z,91.60
2017-12-01T01:29:21.534Z,91.50
2017-12-01T01:30:24.068Z,91.50
2017-12-01T01:31:27.379Z,91.50
2017-12-01T01:32:29.926Z,91.50
2017-12-01T01:33:32.610Z,91.80
2017-12-01T01:34:35.143Z,91.60
2017-12-01T01:35:38.435Z,91.60
2017-12-01T01:36:41.725Z,91.60
2017-12-01T01:37:45.136Z,91.60
2017-12-01T01:38:47.665Z,91.60
2017-12-01T01:39:50.200Z,91.60
2017-12-01T01:40:52.732Z,91.60
2017-12-01T01:41:55.287Z,91.60
2017-12-01T01:42:58.602Z,91.60
2017-12-01T01:44:01.126Z,91.60
2017-12-01T01:45:04.416Z,91.60
2017-12-01T01:46:07.729Z,91.60
2017-12-01T01:47:10.262Z,91.50
2017-12-01T01:48:13.604Z,91.50
2017-12-01T01:49:16.145Z,91.40
2017-12-01T01:50:18.688Z,91.40
2017-12-01T01:51:21.982Z,91.40
2017-12-01T01:52:24.546Z,91.40
2017-12-01T01:53:27.089Z,91.30
2017-12-01T01:54:30.389Z,91.30
2017-12-01T01:55:33.708Z,91.40
2017-12-01T01:56:36.232Z,91.40
2017-12-01T01:57:39.539Z,91.40
2017-12-01T01:58:42.104Z,91.40
2017-12-01T01:59:44.648Z,91.40
2017-12-01T02:00:49.083Z,91.50
2017-12-01T02:01:51.616Z,91.50
2017-12-01T02:02:54.927Z,91.50
2017-12-01T02:03:57.481Z,91.50
2017-12-01T02:05:00.792Z,91.50
2017-12-01T02:06:03.425Z,91.50
2017-12-01T02:07:07.373Z,91.60
2017-12-01T02:08:09.914Z,91.60
2017-12-01T02:09:12.460Z,91.60
2017-12-01T02:10:15.769Z,91.60
2017-12-01T02:11:18.341Z,91.60
2017-12-01T02:12:20.887Z,91.50
2017-12-01T02:13:23.474Z,91.50
2017-12-01T02:14:26.013Z,91.50
2017-12-01T02:15:30.348Z,91.50
2017-12-01T02:16:32.895Z,91.50
2017-12-01T02:17:36.229Z,91.60
2017-12-01T02:18:38.741Z,91.60
2017-12-01T02:19:42.030Z,91.60
2017-12-01T02:20:44.575Z,91.60
2017-12-01T02:21:47.890Z,91.60
2017-12-01T02:22:50.430Z,91.50
2017-12-01T02:23:53.743Z,91.70
2017-12-01T02:24:56.284Z,91.50
2017-12-01T02:25:59.806Z,91.50
2017-12-01T02:27:02.351Z,91.50
2017-12-01T02:28:05.681Z,91.60
2017-12-01T02:29:08.200Z,91.60
2017-12-01T02:30:11.510Z,91.60
2017-12-01T02:31:14.054Z,91.60
2017-12-01T02:32:17.376Z,91.70
2017-12-01T02:33:19.942Z,91.70
2017-12-01T02:34:22.796Z,91.70
2017-12-01T02:35:25.466Z,91.70
2017-12-01T02:36:28.021Z,91.70
2017-12-01T02:37:30.561Z,91.70
2017-12-01T02:38:33.861Z,91.70
2017-12-01T02:39:37.145Z,91.70
2017-12-01T02:40:40.462Z,91.80
2017-12-01T02:41:43.138Z,91.80
2017-12-01T02:42:45.671Z,91.70
2017-12-01T02:43:48.680Z,91.70
2017-12-01T02:44:53.478Z,91.70
2017-12-01T02:45:56.033Z,91.70
2017-12-01T02:46:58.608Z,91.70
2017-12-01T02:48:01.180Z,91.70
2017-12-01T02:49:03.734Z,91.60
2017-12-01T02:50:07.065Z,91.60
2017-12-01T02:51:09.598Z,91.70
2017-12-01T02:52:13.090Z,91.70
2017-12-01T02:53:16.780Z,91.80
2017-12-01T02:54:20.791Z,91.70
2017-12-01T02:55:24.333Z,91.70
2017-12-01T02:56:27.638Z,91.70
2017-12-01T02:57:31.423Z,91.70
2017-12-01T02:58:34.757Z,91.80
2017-12-01T02:59:37.329Z,91.80
2017-12-01T03:00:39.872Z,91.80
2017-12-01T03:01:42.416Z,91.80
2017-12-01T03:02:44.968Z,91.80
2017-12-01T03:03:48.301Z,91.90
2017-12-01T03:04:50.857Z,91.90
2017-12-01T03:05:53.396Z,91.80
2017-12-01T03:06:56.688Z,91.90
2017-12-01T03:07:59.246Z,91.90
2017-12-01T03:09:02.601Z,91.90
2017-12-01T03:10:05.218Z,91.80
2017-12-01T03:11:07.756Z,91.90
2017-12-01T03:12:11.051Z,91.80
2017-12-01T03:13:14.358Z,91.80
2017-12-01T03:14:16.909Z,91.80
2017-12-01T03:15:19.453Z,91.90
2017-12-01T03:16:21.984Z,91.90
2017-12-01T03:17:24.529Z,91.90
2017-12-01T03:18:27.070Z,91.90
2017-12-01T03:19:30.396Z,91.80
2017-12-01T03:20:32.945Z,91.80
2017-12-01T03:21:35.608Z,91.80
2017-12-01T03:22:38.149Z,91.90
2017-12-01T03:23:41.462Z,92.00
2017-12-01T03:24:44.009Z,92.00
2017-12-01T03:25:46.579Z,92.00
2017-12-01T03:26:49.889Z,92.00
2017-12-01T03:27:52.428Z,92.00
2017-12-01T03:28:54.973Z,92.10
2017-12-01T03:29:58.279Z,92.10
2017-12-01T03:31:01.754Z,92.10
2017-12-01T03:32:05.041Z,92.10
2017-12-01T03:33:08.332Z,92.10
2017-12-01T03:34:11.637Z,92.00
2017-12-01T03:35:14.207Z,92.00
2017-12-01T03:36:16.749Z,92.10
2017-12-01T03:37:20.051Z,92.10
2017-12-01T03:38:22.584Z,92.10
2017-12-01T03:39:25.885Z,92.10
2017-12-01T03:40:28.452Z,92.00
2017-12-01T03:41:32.066Z,92.00
2017-12-01T03:42:34.609Z,92.00
2017-12-01T03:43:38.008Z,92.00
2017-12-01T03:44:40.541Z,92.00
2017-12-01T03:45:43.337Z,91.90
2017-12-01T03:46:45.888Z,91.90
2017-12-01T03:47:49.299Z,91.90
2017-12-01T03:48:51.828Z,91.90
2017-12-01T03:49:54.623Z,91.90
2017-12-01T03:50:57.911Z,92.00
2017-12-01T03:52:01.519Z,92.10
2017-12-01T03:53:04.059Z,92.10
2017-12-01T03:54:08.321Z,92.10
2017-12-01T03:55:10.857Z,92.10
2017-12-01T03:56:13.705Z,92.00
2017-12-01T03:57:18.193Z,92.10
2017-12-01T03:58:20.895Z,92.10
2017-12-01T03:59:23.446Z,92.10
2017-12-01T04:00:27.279Z,92.40
2017-12-01T04:01:29.815Z,92.00
2017-12-01T04:02:33.417Z,92.10
2017-12-01T04:03:37.129Z,92.10
2017-12-01T04:04:39.980Z,92.10
2017-12-01T04:05:43.268Z,92.10
2017-12-01T04:06:46.853Z,92.10
2017-12-01T04:07:50.163Z,92.10
2017-12-01T04:08:52.821Z,92.00
2017-12-01T04:09:55.360Z,92.00
2017-12-01T04:10:58.137Z,92.00
2017-12-01T04:12:01.444Z,92.00
2017-12-01T04:13:04.102Z,92.00
2017-12-01T04:14:07.428Z,92.00
2017-12-01T04:15:10.096Z,92.00
2017-12-01T04:16:12.685Z,92.00
2017-12-01T04:17:15.388Z,92.00
2017-12-01T04:18:18.690Z,92.00
2017-12-01T04:19:21.369Z,92.00
2017-12-01T04:20:23.913Z,91.90
2017-12-01T04:21:27.600Z,92.00
2017-12-01T04:22:30.907Z,92.00
2017-12-01T04:23:34.185Z,92.00
2017-12-01T04:24:36.739Z,92.00
2017-12-01T04:25:40.104Z,91.90
2017-12-01T04:26:42.988Z,91.90
2017-12-01T04:27:46.273Z,91.90
2017-12-01T04:28:49.877Z,91.90
2017-12-01T04:29:53.199Z,91.90
2017-12-01T04:30:55.744Z,92.20
2017-12-01T04:31:58.287Z,91.80
2017-12-01T04:33:01.617Z,91.60
2017-12-01T04:34:04.330Z,91.70
2017-12-01T04:35:07.671Z,91.70
2017-12-01T04:36:10.212Z,91.70
2017-12-01T04:37:13.629Z,91.60
2017-12-01T04:38:16.550Z,91.50
2017-12-01T04:39:19.846Z,91.50
2017-12-01T04:40:22.450Z,91.50
2017-12-01T04:41:24.987Z,91.40
2017-12-01T04:42:27.569Z,91.50
2017-12-01T04:43:30.153Z,91.40
2017-12-01T04:44:32.681Z,91.40
2017-12-01T04:45:35.778Z,91.50
2017-12-01T04:46:38.318Z,91.60
2017-12-01T04:47:41.713Z,91.50
2017-12-01T04:48:45.061Z,91.50
2017-12-01T04:49:48.454Z,91.50
2017-12-01T04:51:02.013Z,91.60
2017-12-01T04:52:04.614Z,91.60
2017-12-01T04:53:07.547Z,91.60
2017-12-01T04:54:10.936Z,91.60
2017-12-01T04:55:15.158Z,91.50
2017-12-01T04:56:17.724Z,91.50
2017-12-01T04:57:21.753Z,91.40
2017-12-01T04:58:24.282Z,91.50
2017-12-01T04:59:26.858Z,91.50
2017-12-01T05:00:29.721Z,91.50
2017-12-01T05:01:32.300Z,91.40
2017-12-01T05:02:34.847Z,91.50
2017-12-01T05:03:38.464Z,91.50
2017-12-01T05:04:41.504Z,91.50
2017-12-01T05:05:44.438Z,91.40
2017-12-01T05:06:46.982Z,91.80
2017-12-01T05:07:49.529Z,91.30
2017-12-01T05:08:52.842Z,91.30
2017-12-01T05:09:55.369Z,91.30
2017-12-01T05:10:58.664Z,91.30
2017-12-01T05:12:01.977Z,91.20
2017-12-01T05:13:04.907Z,91.50
2017-12-01T05:14:07.434Z,91.20
2017-12-01T05:15:09.962Z,91.10
2017-12-01T05:16:12.753Z,91.10
2017-12-01T05:17:15.521Z,91.10
2017-12-01T05:18:18.068Z,91.00
2017-12-01T05:19:20.620Z,91.00
2017-12-01T05:20:23.180Z,91.00
2017-12-01T05:21:25.721Z,91.00
2017-12-01T05:22:29.257Z,91.20
2017-12-01T05:23:32.579Z,91.10
2017-12-01T05:24:35.165Z,91.00
2017-12-01T05:25:37.697Z,91.10
2017-12-01T05:26:40.876Z,91.20
2017-12-01T05:27:43.424Z,91.10
2017-12-01T05:28:47.349Z,91.10
2017-12-01T05:29:50.296Z,91.10
2017-12-01T05:30:53.704Z,91.00
2017-12-01T05:31:57.037Z,90.90
2017-12-01T05:32:59.581Z,90.90
2017-12-01T05:34:02.118Z,91.00
2017-12-01T05:35:06.649Z,90.90
2017-12-01T05:36:09.190Z,90.80
2017-12-01T05:37:12.017Z,90.90
2017-12-01T05:38:14.665Z,90.90
2017-12-01T05:39:17.699Z,90.90
2017-12-01T05:40:21.026Z,90.90
2017-12-01T05:41:25.607Z,90.90
2017-12-01T05:42:29.936Z,90.90
2017-12-01T05:43:34.439Z,90.90
2017-12-01T05:44:37.067Z,90.90
2017-12-01T05:45:39.810Z,91.00
2017-12-01T05:46:42.350Z,91.00
2017-12-01T05:47:44.940Z,91.10
2017-12-01T05:48:48.004Z,91.10
2017-12-01T05:49:51.364Z,91.40
2017-12-01T05:50:54.670Z,91.00
2017-12-01T05:52:01.554Z,91.00
2017-12-01T05:53:04.085Z,91.00
2017-12-01T05:54:07.818Z,91.10
2017-12-01T05:55:10.383Z,91.00
2017-12-01T05:56:13.961Z,91.10
2017-12-01T05:57:16.929Z,91.10
2017-12-01T05:58:19.487Z,91.10
2017-12-01T05:59:23.024Z,91.20
2017-12-01T06:00:25.630Z,91.20
2017-12-01T06:01:28.945Z,91.20
2017-12-01T06:02:32.560Z,91.10
2017-12-01T06:03:35.179Z,91.10
2017-12-01T06:04:38.487Z,91.10
2017-12-01T06:05:41.547Z,91.10
2017-12-01T06:06:44.103Z,91.10
2017-12-01T06:07:49.033Z,91.10
2017-12-01T06:08:52.369Z,91.00
2017-12-01T06:09:55.536Z,91.00
2017-12-01T06:10:59.213Z,91.10
2017-12-01T06:12:01.751Z,91.10
2017-12-01T06:13:05.062Z,91.00
2017-12-01T06:14:07.709Z,91.00
2017-12-01T06:15:11.122Z,91.10
2017-12-01T06:16:13.773Z,91.10
2017-12-01T06:17:16.341Z,91.10
2017-12-01T06:18:18.874Z,91.20
2017-12-01T06:19:21.409Z,91.20
2017-12-01T06:20:23.930Z,91.20
2017-12-01T06:21:27.284Z,91.20
2017-12-01T06:22:29.825Z,91.10
2017-12-01T06:23:32.370Z,91.20
2017-12-01T06:24:34.909Z,91.20
2017-12-01T06:25:38.230Z,91.20
2017-12-01T06:26:40.841Z,91.10
2017-12-01T06:27:43.486Z,91.10
2017-12-01T06:28:46.039Z,91.00
2017-12-01T06:29:48.592Z,91.10
2017-12-01T06:30:51.193Z,91.10
2017-12-01T06:31:53.722Z,91.10
2017-12-01T06:32:56.284Z,91.10
2017-12-01T06:33:58.889Z,91.20
2017-12-01T06:35:01.457Z,91.10
2017-12-01T06:36:04.002Z,91.20
2017-12-01T06:37:06.550Z,91.20
2017-12-01T06:38:09.106Z,91.20
2017-12-01T06:39:11.669Z,91.30
2017-12-01T06:40:14.955Z,91.30
2017-12-01T06:41:18.269Z,91.30
2017-12-01T06:42:20.820Z,91.30
2017-12-01T06:43:23.383Z,91.30
2017-12-01T06:44:25.963Z,91.40
2017-12-01T06:45:28.525Z,91.30
2017-12-01T06:46:31.081Z,91.30
2017-12-01T06:47:33.626Z,91.30
2017-12-01T06:48:36.932Z,91.30
2017-12-01T06:49:39.832Z,91.30
2017-12-01T06:50:42.443Z,91.30
2017-12-01T06:51:45.184Z,91.30
2017-12-01T06:52:47.725Z,91.30
2017-12-01T06:53:50.257Z,91.30
2017-12-01T06:54:53.581Z,91.40
2017-12-01T06:55:56.101Z,91.30
2017-12-01T06:56:59.613Z,91.40
2017-12-01T06:58:02.145Z,91.60
2017-12-01T06:59:04.672Z,91.40
2017-12-01T07:00:07.319Z,91.40
2017-12-01T07:01:09.868Z,91.40
2017-12-01T07:02:13.154Z,91.40
2017-12-01T07:03:16.445Z,91.40
2017-12-01T07:04:18.977Z,91.40
2017-12-01T07:05:21.523Z,91.40
2017-12-01T07:06:24.073Z,91.40
2017-12-01T07:07:26.616Z,91.30
2017-12-01T07:08:29.144Z,91.30
2017-12-01T07:09:31.671Z,91.30
2017-12-01T07:10:34.213Z,91.30
2017-12-01T07:11:36.892Z,91.30
2017-12-01T07:12:39.459Z,91.30
2017-12-01T07:13:42.019Z,91.30
2017-12-01T07:14:44.562Z,91.30
2017-12-01T07:15:48.128Z,91.30
2017-12-01T07:16:50.638Z,91.30
2017-12-01T07:17:53.201Z,91.30
2017-12-01T07:18:56.503Z,91.20
2017-12-01T07:19:59.053Z,91.20
2017-12-01T07:21:02.376Z,91.20
2017-12-01T07:22:04.919Z,91.20
2017-12-01T07:23:07.443Z,91.20
2017-12-01T07:24:09.999Z,91.20
2017-12-01T07:25:13.298Z,91.30
2017-12-01T07:26:28.358Z,91.40
2017-12-01T07:27:30.913Z,91.30
2017-12-01T07:28:33.445Z,91.60
2017-12-01T07:29:35.989Z,91.40
2017-12-01T07:30:38.675Z,91.80
2017-12-01T07:31:41.220Z,91.50
2017-12-01T07:32:43.827Z,91.40
2017-12-01T07:33:46.376Z,91.40
2017-12-01T07:34:48.901Z,91.40
2017-12-01T07:35:52.211Z,91.30
2017-12-01T07:36:54.885Z,91.30
2017-12-01T07:37:57.425Z,91.30
2017-12-01T07:39:00.755Z,91.30
2017-12-01T07:40:03.297Z,91.30
2017-12-01T07:41:05.867Z,91.20
2017-12-01T07:42:08.453Z,91.30
2017-12-01T07:43:10.998Z,91.30
2017-12-01T07:45:55.733Z,91.40
2017-12-01T07:46:59.038Z,91.50
2017-12-01T07:48:01.619Z,91.50
2017-12-01T07:49:04.185Z,91.50
2017-12-01T07:50:06.724Z,91.40
2017-12-01T07:51:10.020Z,91.40
2017-12-01T07:52:12.586Z,91.40
2017-12-01T07:53:15.169Z,91.20
2017-12-01T07:54:17.705Z,91.20
2017-12-01T07:55:21.005Z,91.20
2017-12-01T07:56:23.573Z,91.10
2017-12-01T07:57:26.122Z,91.10
2017-12-01T07:58:29.489Z,91.10
2017-12-01T07:59:32.026Z,91.10
2017-12-01T08:00:34.578Z,91.00
2017-12-01T08:01:37.144Z,91.00
2017-12-01T08:02:40.177Z,91.00
2017-12-01T08:03:42.732Z,91.00
2017-12-01T08:04:46.265Z,90.80
2017-12-01T08:05:48.815Z,90.60
2017-12-01T08:06:52.126Z,90.60
2017-12-01T08:07:54.671Z,90.60
2017-12-01T08:08:57.319Z,90.40
2017-12-01T08:09:59.887Z,90.40
2017-12-01T08:11:02.412Z,90.30
2017-12-01T08:12:04.948Z,90.40
2017-12-01T08:13:07.502Z,90.40
2017-12-01T08:14:10.840Z,90.40
2017-12-01T08:15:13.413Z,90.40
2017-12-01T08:16:28.139Z,90.30
2017-12-01T08:17:30.675Z,90.00
2017-12-01T08:18:45.814Z,90.00
2017-12-01T08:19:48.374Z,90.00
2017-12-01T08:20:50.912Z,90.10
2017-12-01T08:22:05.537Z,90.40
2017-12-01T08:23:08.130Z,90.20
2017-12-01T08:24:22.648Z,90.10
2017-12-01T08:25:27.832Z,90.00
2017-12-01T08:26:30.380Z,90.00
2017-12-01T08:27:32.932Z,90.30
2017-12-01T08:28:35.475Z,90.00
2017-12-01T08:29:38.017Z,90.00
2017-12-01T08:30:41.629Z,89.90
2017-12-01T08:31:44.225Z,89.80
2017-12-01T08:32:46.787Z,89.70
2017-12-01T08:33:49.365Z,89.60
2017-12-01T08:34:51.933Z,89.70
2017-12-01T08:35:54.465Z,89.20
2017-12-01T08:36:57.029Z,89.20
2017-12-01T08:37:59.575Z,89.40
2017-12-01T08:39:02.873Z,89.30
2017-12-01T08:40:07.225Z,89.30
2017-12-01T08:41:11.393Z,89.30
2017-12-01T08:42:13.927Z,89.30
2017-12-01T08:43:16.495Z,89.10
2017-12-01T08:44:19.806Z,89.20
2017-12-01T08:45:22.375Z,89.20
2017-12-01T08:46:24.985Z,88.90
2017-12-01T08:47:27.513Z,88.80
2017-12-01T08:48:30.089Z,88.70
2017-12-01T08:49:32.619Z,88.80
2017-12-01T08:50:35.936Z,89.20
2017-12-01T08:51:38.487Z,89.10
2017-12-01T08:52:41.433Z,89.40
2017-12-01T08:53:44.454Z,89.50
2017-12-01T08:54:47.237Z,89.20
2017-12-01T08:55:49.814Z,89.40
2017-12-01T08:56:53.130Z,89.20
2017-12-01T08:57:57.005Z,89.10
2017-12-01T08:58:59.593Z,88.90
2017-12-01T09:00:02.238Z,88.80
2017-12-01T09:01:05.150Z,89.00
2017-12-01T09:02:08.705Z,89.30
2017-12-01T09:03:11.685Z,89.30
2017-12-01T09:04:14.282Z,89.40
2017-12-01T09:05:17.588Z,89.20
2017-12-01T09:06:21.159Z,88.90
2017-12-01T09:07:24.509Z,88.80
2017-12-01T09:08:29.111Z,88.80
2017-12-01T09:09:32.915Z,88.60
2017-12-01T09:10:35.480Z,88.50
2017-12-01T09:11:38.115Z,88.70
2017-12-01T09:12:41.523Z,89.10
2017-12-01T09:13:44.116Z,89.20
2017-12-01T09:14:47.046Z,89.30
2017-12-01T09:15:50.267Z,89.30
2017-12-01T09:16:52.941Z,89.50
2017-12-01T09:17:55.827Z,88.80
2017-12-01T09:19:00.045Z,88.80
2017-12-01T09:20:02.963Z,88.70
2017-12-01T09:21:06.062Z,88.90
2017-12-01T09:22:08.642Z,88.80
2017-12-01T09:23:13.233Z,88.60
2017-12-01T09:24:16.302Z,88.30
2017-12-01T09:25:18.921Z,87.80
2017-12-01T09:26:22.143Z,87.60
2017-12-01T09:27:24.761Z,87.20
2017-12-01T09:28:27.702Z,87.20
2017-12-01T09:29:30.281Z,86.80
2017-12-01T09:30:32.823Z,86.80
2017-12-01T09:31:35.426Z,86.20
2017-12-01T09:32:38.452Z,86.40
2017-12-01T09:33:42.845Z,84.90
2017-12-01T09:34:46.204Z,84.90
2017-12-01T09:35:48.815Z,84.80
2017-12-01T09:36:52.210Z,84.90
2017-12-01T09:37:55.550Z,85.10
2017-12-01T09:38:58.713Z,85.10
2017-12-01T09:40:01.519Z,85.30
2017-12-01T09:41:04.108Z,85.50
2017-12-01T09:42:07.534Z,86.30
2017-12-01T09:43:10.109Z,86.30
2017-12-01T09:44:13.652Z,85.70
2017-12-01T09:45:16.942Z,85.50
2017-12-01T09:46:20.670Z,85.90
2017-12-01T09:47:23.252Z,85.90
2017-12-01T09:48:25.792Z,85.60
2017-12-01T09:49:28.357Z,85.80
2017-12-01T09:50:31.249Z,86.80
2017-12-01T09:51:33.974Z,85.80
2017-12-01T09:52:37.291Z,86.10
2017-12-01T09:53:40.177Z,86.10
2017-12-01T09:54:43.060Z,86.30
2017-12-01T09:55:45.610Z,85.60
2017-12-01T09:56:48.150Z,84.10
2017-12-01T09:57:52.893Z,83.70
2017-12-01T09:58:55.651Z,83.70
2017-12-01T09:59:58.186Z,83.90
2017-12-01T10:01:01.522Z,84.90
2017-12-01T10:02:04.100Z,84.90
2017-12-01T10:03:06.732Z,84.60
2017-12-01T10:04:09.352Z,83.90
2017-12-01T10:05:11.882Z,83.60
2017-12-01T10:06:14.417Z,83.20
2017-12-01T10:07:17.823Z,83.20
2017-12-01T10:08:20.365Z,83.20
2017-12-01T10:09:23.816Z,82.90
2017-12-01T10:10:26.421Z,82.90
2017-12-01T10:11:29.021Z,83.10
2017-12-01T10:12:31.570Z,82.50
2017-12-01T10:13:34.928Z,81.40
2017-12-01T10:14:37.652Z,81.40
2017-12-01T10:15:40.196Z,81.60
2017-12-01T10:16:43.689Z,81.50
2017-12-01T10:17:46.315Z,81.50
2017-12-01T10:18:49.681Z,81.30
2017-12-01T10:19:52.216Z,81.00
2017-12-01T10:20:54.745Z,79.60
2017-12-01T10:21:58.070Z,78.50
2017-12-01T10:23:00.615Z,78.80
2017-12-01T10:24:03.458Z,78.50
2017-12-01T10:25:06.499Z,78.10
2017-12-01T10:26:09.328Z,78.50
2017-12-01T10:27:12.568Z,77.60
2017-12-01T10:28:17.377Z,77.20
2017-12-01T10:29:20.191Z,75.80
2017-12-01T10:30:25.471Z,74.80
2017-12-01T10:31:28.072Z,73.90
2017-12-01T10:32:31.541Z,73.10
2017-12-01T10:33:34.100Z,72.50
2017-12-01T10:34:36.649Z,70.10
2017-12-01T10:35:39.522Z,69.20
2017-12-01T10:36:43.258Z,68.80
2017-12-01T10:37:45.812Z,68.70
2017-12-01T10:38:48.648Z,69.20
2017-12-01T10:39:53.397Z,70.00
2017-12-01T10:40:56.976Z,69.90
2017-12-01T10:41:59.962Z,70.10
2017-12-01T10:43:03.398Z,69.30
2017-12-01T10:44:05.968Z,70.10
2017-12-01T10:45:09.283Z,70.30
2017-12-01T10:46:11.943Z,70.40
2017-12-01T10:47:15.236Z,69.30
2017-12-01T10:48:17.871Z,69.30
2017-12-01T10:49:21.231Z,69.80
2017-12-01T10:50:26.032Z,70.20
2017-12-01T10:51:28.574Z,70.20
2017-12-01T10:52:31.988Z,70.80
2017-12-01T10:53:36.156Z,70.80
2017-12-01T10:54:39.459Z,70.80
2017-12-01T10:55:42.047Z,70.70
2017-12-01T10:56:44.601Z,70.80
2017-12-01T10:57:47.432Z,71.40
2017-12-01T10:58:50.265Z,71.50
2017-12-01T10:59:53.092Z,72.50
2017-12-01T11:00:56.432Z,72.80
2017-12-01T11:01:58.976Z,72.80
2017-12-01T11:03:01.535Z,72.90
2017-12-01T11:04:04.090Z,72.40
2017-12-01T11:05:06.766Z,72.80
2017-12-01T11:06:09.357Z,72.70
2017-12-01T11:07:11.915Z,72.40
2017-12-01T11:08:14.561Z,72.90
2017-12-01T11:09:17.108Z,73.20
2017-12-01T11:10:20.535Z,72.80
2017-12-01T11:11:23.112Z,73.50
2017-12-01T11:12:25.644Z,73.60
2017-12-01T11:13:28.956Z,72.70
2017-12-01T11:14:32.450Z,72.70
2017-12-01T11:15:35.015Z,73.10
2017-12-01T11:16:37.599Z,73.00
2017-12-01T11:17:40.159Z,73.10
2017-12-01T11:18:42.746Z,72.40
2017-12-01T11:19:45.312Z,72.70
2017-12-01T11:20:47.865Z,72.80
2017-12-01T11:21:50.431Z,73.10
2017-12-01T11:22:52.993Z,72.30
2017-12-01T11:23:55.554Z,71.50
2017-12-01T11:24:58.089Z,71.90
2017-12-01T11:26:00.651Z,72.40
2017-12-01T11:27:04.158Z,71.50
2017-12-01T11:28:06.703Z,71.40
2017-12-01T11:29:10.010Z,69.50
2017-12-01T11:30:12.557Z,69.40
2017-12-01T11:31:15.877Z,69.60
2017-12-01T11:32:18.427Z,69.40
2017-12-01T11:33:20.966Z,69.20
2017-12-01T11:34:24.380Z,68.80
2017-12-01T11:35:26.941Z,68.70
2017-12-01T11:36:29.502Z,69.20
2017-12-01T11:37:33.049Z,68.70
2017-12-01T11:38:35.591Z,68.90
2017-12-01T11:39:39.200Z,69.40
2017-12-01T11:40:41.729Z,69.00
2017-12-01T11:41:44.313Z,68.20
2017-12-01T11:42:46.896Z,67.40
2017-12-01T11:43:49.430Z,66.90
2017-12-01T11:44:51.969Z,66.20
2017-12-01T11:45:55.299Z,65.00
2017-12-01T11:46:57.837Z,65.60
2017-12-01T11:48:01.242Z,65.80
2017-12-01T11:49:03.789Z,65.80
2017-12-01T11:50:07.176Z,65.20
2017-12-01T11:51:10.479Z,65.40
2017-12-01T11:52:13.092Z,65.30
2017-12-01T11:53:15.675Z,65.50
2017-12-01T11:54:18.217Z,64.40
2017-12-01T11:55:20.911Z,64.20
2017-12-01T11:56:23.656Z,64.10
2017-12-01T11:57:26.303Z,64.70
2017-12-01T11:58:28.881Z,64.70
2017-12-01T11:59:31.454Z,63.10
2017-12-01T12:00:35.955Z,62.70
2017-12-01T12:01:38.500Z,63.90
2017-12-01T12:02:41.808Z,64.10
2017-12-01T12:03:44.486Z,64.10
2017-12-01T12:04:47.075Z,64.00
2017-12-01T12:05:49.610Z,64.10
2017-12-01T12:06:52.175Z,63.80
2017-12-01T12:07:54.726Z,63.50
2017-12-01T12:08:58.193Z,64.50
2017-12-01T12:10:01.513Z,64.10
2017-12-01T12:11:04.259Z,64.00
2017-12-01T12:12:07.581Z,62.50
2017-12-01T12:13:10.125Z,62.50
2017-12-01T12:14:12.700Z,61.40
2017-12-01T12:15:15.253Z,61.50
2017-12-01T12:16:19.250Z,61.50
2017-12-01T12:17:23.579Z,61.10
2017-12-01T12:18:26.187Z,61.10
2017-12-01T12:19:29.520Z,59.70
2017-12-01T12:20:32.941Z,59.50
2017-12-01T12:21:36.215Z,59.40
2017-12-01T12:22:39.257Z,58.60
2017-12-01T12:23:41.951Z,58.60
2017-12-01T12:24:44.619Z,58.20
2017-12-01T12:25:47.273Z,57.70
2017-12-01T12:26:49.841Z,57.00
2017-12-01T12:27:52.620Z,58.50
2017-12-01T12:28:55.434Z,58.40
2017-12-01T12:29:57.990Z,58.80
2017-12-01T12:31:00.556Z,58.00
2017-12-01T12:32:03.329Z,58.00
2017-12-01T12:33:07.478Z,56.90
2017-12-01T12:34:11.177Z,57.60
2017-12-01T12:35:14.486Z,58.10
2017-12-01T12:36:17.428Z,58.20
2017-12-01T12:37:21.841Z,58.50
2017-12-01T12:38:26.913Z,58.50
2017-12-01T12:39:30.102Z,58.50
2017-12-01T12:40:32.918Z,58.60
2017-12-01T12:41:37.049Z,58.60
2017-12-01T12:42:39.885Z,58.40
2017-12-01T12:43:44.457Z,58.40
2017-12-01T12:44:47.578Z,58.40
2017-12-01T12:45:50.105Z,58.50
2017-12-01T12:46:52.854Z,58.60
2017-12-01T12:47:55.450Z,59.00
2017-12-01T12:48:57.996Z,58.80
2017-12-01T12:50:00.696Z,57.90
2017-12-01T12:51:04.238Z,58.60
2017-12-01T12:52:07.535Z,58.40
2017-12-01T12:53:10.112Z,58.40
2017-12-01T12:54:12.704Z,58.00
2017-12-01T12:55:15.459Z,58.40
2017-12-01T12:56:17.994Z,58.40
2017-12-01T12:57:20.574Z,58.60
2017-12-01T12:58:23.139Z,59.10
2017-12-01T12:59:25.724Z,59.50
2017-12-01T13:00:28.278Z,60.00
2017-12-01T13:01:30.824Z,60.00
2017-12-01T13:02:34.125Z,60.30
2017-12-01T13:03:36.697Z,60.30
2017-12-01T13:04:39.267Z,61.10
2017-12-01T13:05:41.867Z,61.40
2017-12-01T13:06:44.446Z,61.50
2017-12-01T13:07:47.045Z,61.50
2017-12-01T13:08:50.375Z,61.60
2017-12-01T13:09:53.965Z,61.60
2017-12-01T13:10:56.539Z,61.50
2017-12-01T13:11:59.380Z,62.20
2017-12-01T13:13:02.525Z,62.80
2017-12-01T13:14:05.140Z,62.50
2017-12-01T13:15:07.689Z,63.90
2017-12-01T13:16:11.389Z,65.10
2017-12-01T13:17:14.614Z,66.30
2017-12-01T13:18:17.299Z,67.10
2017-12-01T13:19:20.000Z,67.50
2017-12-01T13:20:22.553Z,68.10
2017-12-01T13:21:25.893Z,67.90
2017-12-01T13:22:28.428Z,68.70
2017-12-01T13:23:30.992Z,68.20
2017-12-01T13:24:33.609Z,68.70
2017-12-01T13:25:36.236Z,69.80
2017-12-01T13:26:38.825Z,70.00
2017-12-01T13:27:41.491Z,70.40
2017-12-01T13:28:44.354Z,71.30
2017-12-01T13:29:46.928Z,71.90
2017-12-01T13:30:50.648Z,72.30
2017-12-01T13:31:53.557Z,72.60
2017-12-01T13:32:56.939Z,73.60